Terminal Aerodrome Forecast
Issued by NWS Portland, ME

Home | Current Version | Previous Version | Text Only | Print | Product List | Glossary On
Versions: 1 2 3 4 5 6 7 8 9 10 11 12 13 14 15 16 17 18 19 20 21 22 23 24 25 26 27 28 29 30 31 32
355
FTUS41 KGYX 240624 AAA
TAFCON
TAF AMD
KCON 240624Z 2406/2506 03014G22KT 4SM -SNPL BKN020 OVC060
      WS015/09040KT
      TEMPO 2406/2409 2SM PLSN OVC030
     FM240900 05013G23KT 2SM +PL OVC008 WS015/08045KT
     FM241200 04012G25KT 2SM FZRAPL OVC008
     FM241700 24013G22KT 1 1/2SM RA BR OVC015
     FM250000 34013G19KT 3/4SM -DZ BR OVC007=

USA.gov is the U.S. government's official web portal to all federal, state and local government web resources and services.